Rocky Nook, Massachusetts
Current Conditions -  °F | °C
As of 10:14 AM on Wednesday 22 Oct 2014 (Local Time) from KPYM Reporting Station
Light Rain Light Rain  
Wind Chill: 55°   Ceiling: 400
Heat Index: 55°   Visibility: 3mi
Dew Point: 54°   Wind: 21mph
Humidity: 96%   Direction: 30°NNE
Pressure: 29.94"   Gusts: 28mph
Location:  41.9862°N, 70.748°W
Report Text: KPYM 221414Z AUTO 03018G24KT 3SM -RA BR OVC004 13/12 A2994 RMK AO2 P0000 T01280122
Loading
Personal Weather Stations






























Interactive Weather Map
Tropical Storm Tracking
New forecast layout! Learn more

10-Day Weather Forecast

Advertisements
Track Severe Weather on mobile